If you wish to contribute or participate in the discussions about articles you are invited to join SKYbrary as a registered user

 Actions

Assiut International Airport

From SKYbrary Wiki

HEAT
Airport
ICAO: HEAT – IATA: ATZ
Summary
Name Assiut International Airport
Region Africa
Territory Egypt EG.gif
Location Asyut, Al Wadi al Jadid
Serving Asyut
Elevation 235.306 m
772 ft
772 ft235.306 m
Type medium airport
Coordinates 27° 2' 47.4288", 31° 0' 43.1388"
Runways
Designator Length Width Surface ROPS
13/31 3019 m9,904.856 ft 45 m147.638 ft ASP /
METAR
Observation HEAT 132000Z 34014KT CAVOK 14/09 Q1022 NOSIG
Station Asyut
Date/Time 13 December 2017 20:00:00
Wind direction 340°
Wind speed 14 kts
Lowest cloud amount clouds and visibility OK
Temperature 14°C
Dew point 9°C
Humidity 71%
QNH 1022 hPa
Weather condition n/a

Maps

Terrain

Loading map...

Airport Layout

Loading map...


Accidents & Serious Incidents at or in vicinity of HEAT

None on SKYbrary